Time;durP1;ratioP1;P1;durP2;ratioP2;P2;SDS_P1;SDS_P2;PMS_P1;PMS_P2;Temp;Humidity;BMP_temperature;BMP_pressure;BME280_temperature;BME280_humidity;BME280_pressure;Samples;Min_cycle;Max_cycle;Signal;HPM_P1;HPM_P2
2021/05/28 00:00:57;;;;;;;1.63;1.52;;;16.10;72.80;;;;;;5123297;27;20047;-47
2021/05/28 00:03:22;;;;;;;2.33;1.50;;;16.00;72.80;;;;;;5117472;27;20487;-50
2021/05/28 00:05:48;;;;;;;2.97;1.58;;;16.00;72.70;;;;;;5104051;27;20078;-46
2021/05/28 00:08:14;;;;;;;2.17;1.60;;;16.00;72.70;;;;;;5122688;27;20039;-46
2021/05/28 00:10:39;;;;;;;1.55;1.45;;;16.00;72.80;;;;;;5122042;27;20176;-49
2021/05/28 00:13:05;;;;;;;2.20;1.40;;;16.00;72.70;;;;;;5122339;27;20035;-47
2021/05/28 00:15:32;;;;;;;2.08;1.52;;;16.00;72.70;;;;;;5123483;27;20125;-49
2021/05/28 00:17:58;;;;;;;2.58;1.63;;;16.00;72.70;;;;;;5098134;28;20071;-45
2021/05/28 00:20:25;;;;;;;2.83;1.65;;;16.00;72.70;;;;;;5109296;28;20558;-46
2021/05/28 00:22:51;;;;;;;1.67;1.42;;;16.00;72.70;;;;;;5109871;28;20201;-46
2021/05/28 00:25:17;;;;;;;1.80;1.63;;;16.00;72.70;;;;;;5121556;27;20118;-47
2021/05/28 00:27:43;;;;;;;2.33;1.50;;;16.00;72.80;;;;;;5123364;27;20035;-47
2021/05/28 00:30:10;;;;;;;2.50;1.42;;;16.00;72.80;;;;;;5119194;27;20046;-47
2021/05/28 00:32:36;;;;;;;2.22;1.48;;;16.00;72.80;;;;;;5122511;27;20369;-47
2021/05/28 00:35:03;;;;;;;1.88;1.52;;;16.00;72.80;;;;;;5118878;27;20077;-49
2021/05/28 00:37:29;;;;;;;1.73;1.52;;;16.00;72.80;;;;;;5119579;27;20044;-44
2021/05/28 00:39:55;;;;;;;1.88;1.58;;;16.10;72.80;;;;;;5120046;27;20414;-47
2021/05/28 00:42:20;;;;;;;2.25;1.52;;;16.00;72.80;;;;;;5122565;27;20043;-48
2021/05/28 00:44:46;;;;;;;2.55;1.35;;;16.00;72.80;;;;;;5123566;27;20050;-45
2021/05/28 00:47:12;;;;;;;2.80;2.03;;;16.00;72.80;;;;;;5123095;27;20045;-48
2021/05/28 00:49:38;;;;;;;1.98;1.45;;;16.00;72.80;;;;;;5123182;27;20043;-46
2021/05/28 00:52:04;;;;;;;1.50;1.40;;;16.00;73.50;;;;;;5122542;27;20050;-48
2021/05/28 00:54:30;;;;;;;1.77;1.30;;;16.00;72.80;;;;;;5117994;27;20039;-44
2021/05/28 00:56:56;;;;;;;2.58;1.40;;;16.00;72.80;;;;;;5122633;27;20035;-44
2021/05/28 00:59:24;;;;;;;1.90;1.40;;;16.00;72.80;;;;;;5121085;27;20043;-48
2021/05/28 01:01:50;;;;;;;1.50;1.17;;;16.00;72.80;;;;;;5116925;27;20054;-44
2021/05/28 01:04:16;;;;;;;1.08;1.05;;;16.00;72.80;;;;;;5122431;27;20039;-46
2021/05/28 01:06:42;;;;;;;2.28;1.40;;;16.00;72.80;;;;;;5119792;27;20189;-43
2021/05/28 01:09:08;;;;;;;1.80;1.60;;;16.00;72.80;;;;;;5119613;27;20040;-44
2021/05/28 01:11:36;;;;;;;1.48;1.35;;;16.00;72.80;;;;;;5123368;27;20039;-45
2021/05/28 01:14:02;;;;;;;2.13;1.25;;;16.00;72.90;;;;;;5121527;27;20063;-46
2021/05/28 01:16:28;;;;;;;1.80;1.70;;;16.00;72.80;;;;;;5122261;27;20050;-48
2021/05/28 01:18:54;;;;;;;1.58;1.40;;;16.00;72.90;;;;;;5120838;28;20066;-46
2021/05/28 01:21:21;;;;;;;1.42;1.33;;;16.00;72.80;;;;;;5121952;28;20466;-44
2021/05/28 01:23:47;;;;;;;1.67;1.58;;;16.00;72.90;;;;;;5122191;28;20039;-44
2021/05/28 01:26:14;;;;;;;1.67;1.25;;;16.00;72.90;;;;;;5121629;28;20047;-45
2021/05/28 01:28:40;;;;;;;1.75;1.13;;;15.90;72.80;;;;;;5120924;28;20039;-44
2021/05/28 01:31:06;;;;;;;3.20;1.52;;;16.00;72.90;;;;;;5119805;28;20547;-47
2021/05/28 01:33:32;;;;;;;1.75;1.20;;;15.90;72.80;;;;;;5122987;28;20045;-46
2021/05/28 01:35:59;;;;;;;1.65;1.30;;;16.00;72.80;;;;;;5122313;27;20122;-47
2021/05/28 01:38:26;;;;;;;1.65;1.50;;;16.00;72.90;;;;;;5123734;27;20047;-48
2021/05/28 01:40:52;;;;;;;1.48;1.38;;;16.00;72.90;;;;;;5120745;27;20047;-46
2021/05/28 01:43:18;;;;;;;1.90;1.67;;;16.00;72.90;;;;;;5125669;27;20495;-50
2021/05/28 01:45:44;;;;;;;1.77;1.42;;;15.90;72.80;;;;;;5124448;27;20046;-48
2021/05/28 01:48:10;;;;;;;1.70;1.50;;;15.90;72.80;;;;;;5121914;27;20111;-48
2021/05/28 01:50:45;;;;;;;1.52;1.33;;;15.90;72.80;;;;;;5125663;27;20035;-46
2021/05/28 01:53:12;;;;;;;;;;;16.00;72.90;;;;;;5131498;27;20182;-49
2021/05/28 01:55:37;;;;;;;1.67;1.58;;;15.90;72.80;;;;;;5125359;27;19923;-43
2021/05/28 01:58:11;;;;;;;2.33;1.50;;;16.00;72.90;;;;;;5127184;27;20049;-49
2021/05/28 02:00:38;;;;;;;1.85;1.40;;;16.00;72.90;;;;;;5117943;27;20043;-48
2021/05/28 02:03:05;;;;;;;2.38;1.50;;;16.00;72.90;;;;;;5136090;27;20048;-49
2021/05/28 02:05:32;;;;;;;1.52;1.40;;;15.90;72.90;;;;;;5133593;27;20039;-45
2021/05/28 02:07:57;;;;;;;1.63;1.40;;;16.00;72.90;;;;;;5136137;27;20043;-49
2021/05/28 02:10:23;;;;;;;1.48;1.30;;;15.90;72.90;;;;;;5135956;27;20118;-45
2021/05/28 02:12:49;;;;;;;1.92;1.35;;;16.00;72.90;;;;;;5135385;27;20069;-46
2021/05/28 02:15:15;;;;;;;2.30;1.70;;;15.90;72.90;;;;;;5136253;27;20054;-46
2021/05/28 02:17:41;;;;;;;1.90;1.17;;;16.00;72.90;;;;;;5136207;27;20039;-47
2021/05/28 02:20:08;;;;;;;1.40;1.30;;;16.00;72.90;;;;;;5135628;27;20039;-49
2021/05/28 02:22:34;;;;;;;1.60;1.25;;;16.00;72.90;;;;;;5135911;27;20067;-45
2021/05/28 02:25:00;;;;;;;1.52;1.30;;;16.00;72.90;;;;;;5135615;27;20134;-48
2021/05/28 02:27:25;;;;;;;2.00;1.40;;;15.90;72.90;;;;;;5136007;27;20127;-49
2021/05/28 02:29:52;;;;;;;1.60;1.30;;;16.00;72.90;;;;;;5135760;27;20074;-44
2021/05/28 02:32:18;;;;;;;2.53;1.70;;;16.00;72.90;;;;;;5135359;27;20042;-49
2021/05/28 02:34:44;;;;;;;2.25;1.40;;;16.00;72.90;;;;;;5135997;27;20047;-46
2021/05/28 02:37:09;;;;;;;1.73;1.35;;;16.00;72.90;;;;;;5132986;27;20035;-46
2021/05/28 02:39:35;;;;;;;1.77;1.40;;;16.00;72.90;;;;;;5135975;27;20493;-50
2021/05/28 02:42:01;;;;;;;1.73;1.58;;;15.90;72.90;;;;;;5135779;27;20403;-43
2021/05/28 02:44:27;;;;;;;1.67;1.25;;;16.00;73.00;;;;;;5135131;27;20039;-45
2021/05/28 02:46:53;;;;;;;2.45;1.42;;;15.90;72.90;;;;;;5135818;27;20096;-48
2021/05/28 02:49:19;;;;;;;1.63;1.40;;;15.90;72.90;;;;;;5135095;27;20047;-48
2021/05/28 02:51:44;;;;;;;2.33;1.50;;;16.00;73.00;;;;;;5135267;27;20047;-50
2021/05/28 02:54:10;;;;;;;2.88;1.55;;;16.00;73.00;;;;;;5131408;27;20046;-45
2021/05/28 02:56:36;;;;;;;3.30;1.65;;;16.00;73.00;;;;;;5113658;28;20040;-48
2021/05/28 02:59:01;;;;;;;2.42;1.55;;;16.00;73.00;;;;;;5113430;28;20044;-45
2021/05/28 03:01:27;;;;;;;2.17;1.73;;;16.00;73.00;;;;;;5103718;28;20399;-42
2021/05/28 03:03:53;;;;;;;1.95;1.40;;;15.90;72.90;;;;;;5117662;28;20046;-47
2021/05/28 03:06:19;;;;;;;1.60;1.50;;;15.90;72.90;;;;;;5116369;28;20479;-41
2021/05/28 03:08:44;;;;;;;1.85;1.40;;;15.90;72.90;;;;;;5112998;28;20039;-47
2021/05/28 03:11:10;;;;;;;1.77;1.23;;;15.90;72.90;;;;;;5109725;28;20097;-45
2021/05/28 03:13:36;;;;;;;1.90;1.60;;;15.90;72.90;;;;;;5112142;28;20122;-42
2021/05/28 03:16:02;;;;;;;1.20;1.10;;;16.00;73.00;;;;;;5115090;28;20039;-43
2021/05/28 03:18:35;;;;;;;1.92;1.20;;;15.90;72.90;;;;;;5114953;28;20108;-44
2021/05/28 03:23:54;;;;;;;2.22;1.55;;;15.90;72.90;;;;;;5059437;28;20041;-47
2021/05/28 03:26:21;;;;;;;2.38;1.52;;;15.90;72.90;;;;;;5058427;28;20056;-45
2021/05/28 03:28:47;;;;;;;2.15;1.73;;;15.90;72.90;;;;;;5059177;28;20066;-46
2021/05/28 03:31:13;;;;;;;1.92;1.20;;;15.90;72.90;;;;;;5060469;28;20062;-49
2021/05/28 03:33:40;;;;;;;1.30;1.15;;;15.90;72.90;;;;;;5058401;28;20044;-46
2021/05/28 03:36:06;;;;;;;2.53;1.42;;;15.90;72.90;;;;;;5059623;28;20052;-42
2021/05/28 03:38:33;;;;;;;1.63;1.38;;;15.90;72.90;;;;;;5060087;28;20044;-47
2021/05/28 03:40:59;;;;;;;1.48;1.38;;;15.90;72.90;;;;;;5059852;28;20084;-46
2021/05/28 03:43:25;;;;;;;2.03;1.17;;;15.90;72.90;;;;;;5060748;28;20079;-43
2021/05/28 03:45:52;;;;;;;1.63;1.30;;;15.90;72.90;;;;;;5058792;28;20094;-45
2021/05/28 03:48:18;;;;;;;1.50;1.33;;;15.90;72.90;;;;;;5058145;28;20489;-46
2021/05/28 03:50:44;;;;;;;1.85;1.55;;;16.00;73.00;;;;;;5061293;28;20150;-47
2021/05/28 03:53:09;;;;;;;1.75;1.33;;;16.00;73.00;;;;;;5057994;28;20060;-43
2021/05/28 03:55:35;;;;;;;1.60;1.50;;;16.00;73.00;;;;;;5016521;28;1098432;-42
2021/05/28 03:58:01;;;;;;;1.38;1.02;;;15.90;72.90;;;;;;5059934;28;20052;-44
2021/05/28 04:00:27;;;;;;;1.95;1.50;;;15.90;72.90;;;;;;5078900;28;20040;-45
2021/05/28 04:02:53;;;;;;;1.58;1.48;;;15.90;72.90;;;;;;5113391;28;20067;-46
2021/05/28 04:05:19;;;;;;;1.88;1.42;;;15.90;72.90;;;;;;5111947;28;20491;-48
2021/05/28 04:07:45;;;;;;;1.75;1.30;;;16.00;73.00;;;;;;5113440;28;20111;-42
2021/05/28 04:10:12;;;;;;;2.50;1.25;;;15.90;73.00;;;;;;5116489;27;20051;-44
2021/05/28 04:12:38;;;;;;;1.35;1.23;;;15.90;73.00;;;;;;5113613;28;20043;-46
2021/05/28 04:15:05;;;;;;;2.50;1.35;;;15.90;72.90;;;;;;5113563;27;20055;-49
2021/05/28 04:17:30;;;;;;;1.67;1.38;;;15.90;72.90;;;;;;5110015;28;20096;-48
2021/05/28 04:19:56;;;;;;;2.72;1.42;;;15.90;72.90;;;;;;5114404;27;20119;-45
2021/05/28 04:22:22;;;;;;;1.80;1.50;;;15.90;72.90;;;;;;5113212;28;20505;-47
2021/05/28 04:24:48;;;;;;;1.52;1.40;;;15.90;73.00;;;;;;5114514;27;20047;-44
2021/05/28 04:27:13;;;;;;;2.10;1.40;;;15.90;73.00;;;;;;5115483;27;20048;-50
2021/05/28 04:29:39;;;;;;;1.85;1.30;;;16.00;73.00;;;;;;5113773;28;20100;-48
2021/05/28 04:32:06;;;;;;;1.90;1.23;;;15.90;73.00;;;;;;5114763;27;20096;-46
2021/05/28 04:34:37;;;;;;;2.72;1.65;;;15.90;72.90;;;;;;5111582;27;20050;-49
2021/05/28 04:37:03;;;;;;;1.52;1.35;;;15.90;73.00;;;;;;5113195;27;20456;-48
2021/05/28 04:39:29;;;;;;;1.70;1.40;;;15.90;73.00;;;;;;5114123;28;20046;-42
2021/05/28 04:41:55;;;;;;;1.42;1.33;;;15.90;73.00;;;;;;5114535;28;20052;-47
2021/05/28 04:44:21;;;;;;;2.00;1.50;;;15.90;73.00;;;;;;5113383;27;20043;-49
2021/05/28 04:46:47;;;;;;;1.38;1.25;;;15.90;73.00;;;;;;5113062;28;20126;-45
2021/05/28 04:49:13;;;;;;;1.52;1.30;;;15.90;73.00;;;;;;5113751;27;20551;-48
2021/05/28 04:51:39;;;;;;;1.55;1.45;;;15.90;73.00;;;;;;5113914;27;20044;-44
2021/05/28 04:54:05;;;;;;;1.75;1.25;;;15.90;73.00;;;;;;5112606;28;20043;-43
2021/05/28 04:56:32;;;;;;;1.85;1.50;;;15.90;73.00;;;;;;5119543;27;20044;-46
2021/05/28 04:58:57;;;;;;;2.53;1.50;;;15.90;73.00;;;;;;5128016;27;20103;-47
2021/05/28 05:01:23;;;;;;;1.83;1.50;;;15.90;73.00;;;;;;5127265;27;20039;-46
2021/05/28 05:03:49;;;;;;;1.42;1.33;;;15.90;73.00;;;;;;5112314;28;20052;-43
2021/05/28 05:06:15;;;;;;;1.52;1.30;;;15.90;73.00;;;;;;5112991;28;20058;-46
2021/05/28 05:08:41;;;;;;;1.70;1.40;;;15.90;73.00;;;;;;5112587;28;20503;-46
2021/05/28 05:11:06;;;;;;;1.60;1.35;;;15.90;73.00;;;;;;5112552;28;20075;-49
2021/05/28 05:13:32;;;;;;;1.92;1.60;;;15.90;73.00;;;;;;5111819;28;20471;-45
2021/05/28 05:15:58;;;;;;;3.08;1.67;;;15.90;73.10;;;;;;5112408;28;20548;-46
2021/05/28 05:18:24;;;;;;;1.45;1.25;;;15.90;73.10;;;;;;5112536;28;20052;-46
2021/05/28 05:20:50;;;;;;;1.67;1.30;;;15.90;73.00;;;;;;5112150;28;20046;-43
2021/05/28 05:23:17;;;;;;;2.38;1.30;;;15.90;73.00;;;;;;5112406;28;20085;-43
2021/05/28 05:25:43;;;;;;;2.38;1.42;;;15.90;73.10;;;;;;5112002;28;20046;-46
2021/05/28 05:28:08;;;;;;;5.43;1.60;;;15.90;73.00;;;;;;5112440;28;20043;-47
2021/05/28 05:30:35;;;;;;;1.90;1.60;;;15.80;73.00;;;;;;5112689;28;20360;-49
2021/05/28 05:33:01;;;;;;;1.23;1.02;;;15.90;73.10;;;;;;5111827;28;20110;-44
2021/05/28 05:35:27;;;;;;;1.70;1.35;;;15.80;73.00;;;;;;5111871;28;20055;-48
2021/05/28 05:37:53;;;;;;;2.10;1.58;;;15.80;73.00;;;;;;5112226;28;20044;-45
2021/05/28 05:40:19;;;;;;;2.05;1.48;;;15.80;73.00;;;;;;5111929;28;20160;-48
2021/05/28 05:42:45;;;;;;;2.22;1.50;;;15.90;73.10;;;;;;5112011;28;20048;-46
2021/05/28 05:45:13;;;;;;;1.98;1.45;;;15.90;73.10;;;;;;5112074;28;20534;-46
2021/05/28 05:47:40;;;;;;;1.92;1.20;;;15.90;73.10;;;;;;5112286;28;20130;-46
2021/05/28 05:50:07;;;;;;;2.03;1.40;;;15.90;73.10;;;;;;5111640;28;20507;-46
2021/05/28 05:52:33;;;;;;;2.03;1.50;;;15.90;73.10;;;;;;5112211;28;20127;-48
2021/05/28 05:54:59;;;;;;;1.20;1.10;;;15.80;73.00;;;;;;5113261;28;20139;-46
2021/05/28 05:57:25;;;;;;;1.73;1.30;;;15.80;73.10;;;;;;5112280;28;20484;-47
2021/05/28 05:59:51;;;;;;;1.77;1.30;;;15.90;73.10;;;;;;5111967;28;20047;-44
2021/05/28 06:02:17;;;;;;;2.60;1.83;;;15.80;73.10;;;;;;5111227;28;20036;-47
2021/05/28 06:04:42;;;;;;;2.50;1.50;;;15.80;73.10;;;;;;5111025;28;20464;-48
2021/05/28 06:07:08;;;;;;;2.08;1.42;;;15.80;73.10;;;;;;5111433;28;20102;-48
2021/05/28 06:09:35;;;;;;;2.35;1.67;;;15.90;73.10;;;;;;5111183;28;20100;-50
2021/05/28 06:12:00;;;;;;;2.10;1.40;;;15.90;73.10;;;;;;5111122;28;20452;-46
2021/05/28 06:14:27;;;;;;;2.35;1.67;;;15.90;73.10;;;;;;5111371;28;20043;-46
2021/05/28 06:16:53;;;;;;;2.00;1.58;;;15.90;73.10;;;;;;5111373;28;20040;-49
2021/05/28 06:19:18;;;;;;;1.70;1.30;;;15.90;73.10;;;;;;5111597;28;20047;-45
2021/05/28 06:21:44;;;;;;;2.70;1.65;;;15.90;73.10;;;;;;5111054;28;21463;-45
2021/05/28 06:24:11;;;;;;;1.98;1.77;;;15.90;73.10;;;;;;5113583;28;20059;-46
2021/05/28 06:26:36;;;;;;;1.40;1.30;;;15.90;73.10;;;;;;5115108;28;20035;-45
2021/05/28 06:29:03;;;;;;;1.50;1.30;;;15.90;73.10;;;;;;5115360;28;20048;-48
2021/05/28 06:31:32;;;;;;;1.90;1.50;;;15.90;73.10;;;;;;5115186;28;20047;-49
2021/05/28 06:33:58;;;;;;;1.85;1.48;;;15.90;73.10;;;;;;5115113;28;20380;-48
2021/05/28 06:36:24;;;;;;;1.30;1.20;;;15.90;73.10;;;;;;5114801;28;20047;-47
2021/05/28 06:38:50;;;;;;;2.78;1.70;;;15.90;73.10;;;;;;5111648;28;20526;-46
2021/05/28 06:41:16;;;;;;;1.90;1.50;;;15.90;73.10;;;;;;5114795;28;20138;-46
2021/05/28 06:43:42;;;;;;;1.52;1.30;;;15.90;73.10;;;;;;5115230;28;20058;-50
2021/05/28 06:46:08;;;;;;;1.58;1.33;;;15.90;73.10;;;;;;5115212;28;20043;-50
2021/05/28 06:48:34;;;;;;;1.45;1.25;;;15.90;73.10;;;;;;5114905;28;20093;-46
2021/05/28 06:50:59;;;;;;;1.67;1.48;;;15.90;73.10;;;;;;5114680;28;20044;-39
2021/05/28 06:53:25;;;;;;;1.23;1.17;;;15.90;73.10;;;;;;5114918;28;20041;-42
2021/05/28 06:55:51;;;;;;;1.92;1.50;;;15.90;73.10;;;;;;5121298;27;20058;-41
2021/05/28 06:58:17;;;;;;;1.70;1.38;;;15.90;73.10;;;;;;5124808;27;20160;-41
2021/05/28 07:00:43;;;;;;;1.98;1.20;;;15.90;73.10;;;;;;5124363;27;20046;-43
2021/05/28 07:03:09;;;;;;;1.30;1.20;;;15.90;73.10;;;;;;5126345;27;20085;-43
2021/05/28 07:05:35;;;;;;;1.55;1.33;;;15.90;73.10;;;;;;5123587;27;20463;-44
2021/05/28 07:08:01;;;;;;;1.30;1.20;;;15.90;73.70;;;;;;5125184;27;20564;-41
2021/05/28 07:10:27;;;;;;;1.75;1.48;;;15.90;73.10;;;;;;5123793;27;20048;-41
2021/05/28 07:12:53;;;;;;;1.35;1.25;;;15.90;73.10;;;;;;5123787;27;20185;-40
2021/05/28 07:15:19;;;;;;;2.28;1.67;;;15.90;73.10;;;;;;5125910;27;20126;-42
2021/05/28 07:17:46;;;;;;;1.70;1.33;;;15.90;73.10;;;;;;5123529;27;20052;-44
2021/05/28 07:20:12;;;;;;;1.40;1.30;;;15.90;73.20;;;;;;5125120;27;20115;-42
2021/05/28 07:22:38;;;;;;;1.33;1.20;;;15.90;73.10;;;;;;5124088;27;20042;-41
2021/05/28 07:25:05;;;;;;;1.60;1.50;;;15.90;73.10;;;;;;5125559;27;20039;-42
2021/05/28 07:27:31;;;;;;;1.40;1.25;;;16.00;73.20;;;;;;5120706;27;20063;-38
2021/05/28 07:29:57;;;;;;;1.63;1.35;;;15.90;73.10;;;;;;5107345;27;20498;-39
2021/05/28 07:32:23;;;;;;;1.63;1.42;;;16.00;73.20;;;;;;5123708;27;20043;-37
2021/05/28 07:34:49;;;;;;;1.38;1.27;;;15.90;73.10;;;;;;5121551;27;20399;-37
2021/05/28 07:37:16;;;;;;;1.33;1.20;;;15.90;73.10;;;;;;5117776;27;20062;-41
2021/05/28 07:39:41;;;;;;;2.28;1.38;;;16.00;73.10;;;;;;5122770;27;20039;-37
2021/05/28 07:42:07;;;;;;;7.20;3.97;;;15.90;73.10;;;;;;5113192;28;20063;-42
2021/05/28 07:44:34;;;;;;;8.15;3.83;;;15.90;72.80;;;;;;5115484;27;20384;-39
2021/05/28 07:46:59;;;;;;;5.75;3.80;;;15.90;72.70;;;;;;5113709;28;20039;-43
2021/05/28 07:49:26;;;;;;;6.68;3.17;;;15.90;72.50;;;;;;5113699;28;20050;-41
2021/05/28 07:51:52;;;;;;;8.02;3.38;;;15.90;72.40;;;;;;5113561;28;20070;-41
2021/05/28 07:54:17;;;;;;;7.05;3.30;;;15.90;72.30;;;;;;5112919;28;20487;-39
2021/05/28 07:56:44;;;;;;;6.72;3.17;;;15.90;72.20;;;;;;5133415;27;20054;-44
2021/05/28 07:59:10;;;;;;;7.90;3.13;;;15.80;72.10;;;;;;5115694;27;20043;-39
2021/05/28 08:01:36;;;;;;;8.68;3.78;;;15.90;72.10;;;;;;5133638;27;20043;-47
2021/05/28 08:04:02;;;;;;;5.20;3.33;;;15.90;72.00;;;;;;5134314;27;20062;-48
2021/05/28 08:06:28;;;;;;;5.63;3.13;;;15.90;72.00;;;;;;5133765;27;20041;-47
2021/05/28 08:08:57;;;;;;;7.68;3.10;;;15.90;72.00;;;;;;5095813;28;20040;-55
2021/05/28 08:11:22;;;;;;;7.82;3.22;;;15.90;72.00;;;;;;5113413;28;20040;-50
2021/05/28 08:13:48;;;;;;;7.18;3.30;;;15.90;72.00;;;;;;5113077;28;20047;-61
2021/05/28 08:16:15;;;;;;;6.05;2.90;;;15.90;72.00;;;;;;5113062;28;20047;-43
2021/05/28 08:18:43;;;;;;;4.45;2.85;;;15.90;71.90;;;;;;5112896;28;20044;-45
2021/05/28 08:21:11;;;;;;;6.18;2.80;;;16.50;74.00;;;;;;5113371;28;20043;-43
2021/05/28 08:23:38;;;;;;;4.60;2.53;;;17.50;71.10;;;;;;5095291;28;20488;-47
2021/05/28 08:26:04;;;;;;;7.55;2.65;;;17.70;69.40;;;;;;5113008;28;20047;-44
2021/05/28 08:28:32;;;;;;;9.95;3.13;;;18.10;69.20;;;;;;5113086;28;20126;-48
2021/05/28 08:30:58;;;;;;;11.07;2.70;;;18.30;67.50;;;;;;5105045;28;20119;-43
2021/05/28 08:33:24;;;;;;;7.07;3.00;;;18.30;66.60;;;;;;5096510;28;20044;-43
2021/05/28 08:35:50;;;;;;;4.28;2.63;;;18.20;66.20;;;;;;5092545;28;20431;-42
2021/05/28 08:38:16;;;;;;;6.07;3.13;;;18.10;66.10;;;;;;5092351;28;20065;-39
2021/05/28 08:40:42;;;;;;;9.30;3.28;;;18.00;66.10;;;;;;5090814;28;20492;-41
2021/05/28 08:43:08;;;;;;;5.13;2.78;;;17.90;66.30;;;;;;5111566;28;20055;-39
2021/05/28 08:45:39;;;;;;;5.80;2.67;;;17.80;66.40;;;;;;5111617;28;20040;-40
2021/05/28 08:48:07;;;;;;;5.45;3.13;;;17.70;66.50;;;;;;5109155;28;20086;-46
2021/05/28 08:50:34;;;;;;;5.00;2.65;;;17.60;66.70;;;;;;5112487;28;20082;-45
2021/05/28 08:53:02;;;;;;;4.38;2.85;;;17.50;67.70;;;;;;5112620;28;20040;-47
2021/05/28 08:55:28;;;;;;;3.65;3.13;;;17.50;67.20;;;;;;5116796;27;20093;-55
2021/05/28 08:57:54;;;;;;;4.90;2.53;;;17.30;67.40;;;;;;5121837;27;20035;-69
2021/05/28 09:00:22;;;;;;;4.75;2.35;;;17.20;67.60;;;;;;5123998;27;20376;-51
2021/05/28 09:02:48;;;;;;;5.30;2.53;;;17.20;67.80;;;;;;5122508;27;20080;-50
2021/05/28 09:05:21;;;;;;;3.92;2.67;;;17.10;68.00;;;;;;5121852;27;20051;-52
2021/05/28 09:07:59;;;;;;;2.85;2.55;;;17.00;68.80;;;;;;5121669;27;20050;-58
2021/05/28 09:10:39;;;;;;;5.35;2.50;;;17.10;68.40;;;;;;5119282;27;20403;-55
2021/05/28 09:13:10;;;;;;;4.70;2.42;;;17.20;68.50;;;;;;5119611;27;20039;-56
2021/05/28 09:15:36;;;;;;;4.65;2.42;;;17.20;68.30;;;;;;5121602;27;20091;-53
2021/05/28 09:18:03;;;;;;;4.43;2.45;;;17.10;68.30;;;;;;5118936;27;20043;-56
2021/05/28 09:20:29;;;;;;;5.20;2.45;;;17.10;68.40;;;;;;5122794;27;20051;-56
2021/05/28 09:23:14;;;;;;;2.83;2.30;;;17.00;68.40;;;;;;5108891;27;20079;-54
2021/05/28 09:26:08;;;;;;;2.70;2.22;;;17.00;68.50;;;;;;5097744;28;20039;-54
2021/05/28 09:28:42;;;;;;;4.23;2.60;;;17.00;68.70;;;;;;5092586;28;20433;-54
2021/05/28 09:31:13;;;;;;;3.85;2.40;;;16.90;68.70;;;;;;5094447;28;20051;-54
2021/05/28 09:33:46;;;;;;;3.50;2.20;;;16.90;68.90;;;;;;5101283;28;20055;-55
2021/05/28 09:36:16;;;;;;;3.85;2.33;;;16.90;69.00;;;;;;5118685;28;20052;-55
2021/05/28 09:39:13;;;;;;;3.65;2.28;;;16.90;69.10;;;;;;5114678;28;20047;-55
2021/05/28 09:41:49;;;;;;;2.80;2.25;;;16.90;69.20;;;;;;5055757;28;20036;-52
2021/05/28 09:44:30;;;;;;;3.08;2.08;;;16.90;69.30;;;;;;5059103;28;20049;-55
2021/05/28 09:47:19;;;;;;;3.55;2.00;;;16.90;69.40;;;;;;5060345;28;20052;-55
2021/05/28 09:49:51;;;;;;;2.67;1.92;;;16.80;69.40;;;;;;5052947;28;21953;-53
2021/05/28 09:52:22;;;;;;;2.65;1.77;;;16.80;69.50;;;;;;5058845;28;20041;-54
2021/05/28 09:55:04;;;;;;;3.45;2.10;;;16.80;69.60;;;;;;5059769;28;20060;-53
2021/05/28 09:57:52;;;;;;;2.70;1.95;;;16.80;69.60;;;;;;5066492;28;20064;-51
2021/05/28 10:00:34;;;;;;;2.67;2.00;;;16.80;69.60;;;;;;5069478;28;20457;-55
2021/05/28 10:03:30;;;;;;;3.05;1.90;;;16.80;69.70;;;;;;5070160;28;20113;-54
2021/05/28 10:05:58;;;;;;;1.75;1.65;;;16.80;69.80;;;;;;5035804;28;20181;-54
2021/05/28 10:08:27;;;;;;;3.17;1.98;;;16.80;69.80;;;;;;5036895;28;20057;-54
2021/05/28 10:10:57;;;;;;;3.00;2.00;;;16.80;69.90;;;;;;5033426;28;20087;-55
2021/05/28 10:13:28;;;;;;;2.97;2.00;;;16.80;70.00;;;;;;5032984;28;20132;-52
2021/05/28 10:15:59;;;;;;;2.35;1.98;;;16.80;70.00;;;;;;5040773;28;20069;-52
2021/05/28 10:18:25;;;;;;;2.25;1.90;;;16.80;70.00;;;;;;5065320;28;20040;-54
2021/05/28 10:20:55;;;;;;;2.35;1.88;;;16.80;70.10;;;;;;5083022;28;20418;-47
2021/05/28 10:23:23;;;;;;;2.47;1.90;;;16.80;70.10;;;;;;5082248;28;20048;-56
2021/05/28 10:25:55;;;;;;;2.45;1.88;;;16.80;70.10;;;;;;5080781;28;20056;-57
2021/05/28 10:28:27;;;;;;;2.97;1.75;;;16.80;70.10;;;;;;5081150;28;20064;-50
2021/05/28 10:30:53;;;;;;;2.03;1.52;;;16.90;70.20;;;;;;5078828;28;20048;-51
2021/05/28 10:33:25;;;;;;;3.30;1.90;;;16.90;70.20;;;;;;5092764;28;20092;-55
2021/05/28 10:35:56;;;;;;;4.53;1.65;;;16.90;70.20;;;;;;5084578;28;20060;-54
2021/05/28 10:38:33;;;;;;;1.90;1.40;;;16.90;70.20;;;;;;5092670;28;20063;-55
2021/05/28 10:41:00;;;;;;;1.70;1.60;;;16.80;70.30;;;;;;5084471;28;20579;-55
2021/05/28 10:43:27;;;;;;;3.28;1.52;;;16.90;70.30;;;;;;5133473;27;20066;-53
2021/05/28 10:46:02;;;;;;;2.22;1.88;;;16.90;70.30;;;;;;5132818;27;20065;-51
2021/05/28 10:48:40;;;;;;;2.40;1.80;;;16.90;70.30;;;;;;5130426;27;20043;-55
2021/05/28 10:51:13;;;;;;;1.80;1.50;;;16.90;70.30;;;;;;5131073;27;20046;-55
2021/05/28 10:53:40;;;;;;;1.63;1.30;;;17.00;70.30;;;;;;5134680;27;20055;-56
2021/05/28 10:56:10;;;;;;;2.00;1.40;;;17.00;70.30;;;;;;5131914;27;20060;-56
2021/05/28 10:58:55;;;;;;;1.92;1.48;;;17.00;70.30;;;;;;5121804;27;20050;-57
2021/05/28 11:01:36;;;;;;;1.88;1.55;;;17.00;70.20;;;;;;5123691;27;20055;-56
2021/05/28 11:04:07;;;;;;;1.75;1.40;;;17.00;70.20;;;;;;5114699;27;20459;-54
2021/05/28 11:09:38;;;;;;;2.45;1.77;;;17.00;70.20;;;;;;5094406;28;20036;-55
2021/05/28 11:12:08;;;;;;;1.90;1.70;;;17.10;70.20;;;;;;5098426;27;20499;-52
2021/05/28 11:14:40;;;;;;;1.63;1.52;;;17.00;70.10;;;;;;5102609;28;20122;-56
2021/05/28 11:17:06;;;;;;;2.03;1.30;;;17.10;70.20;;;;;;5111153;28;20048;-54
2021/05/28 11:19:40;;;;;;;1.83;1.20;;;17.10;70.20;;;;;;5115816;27;20039;-55
2021/05/28 11:22:15;;;;;;;1.40;1.20;;;17.10;70.20;;;;;;5125464;27;20052;-55
2021/05/28 11:24:48;;;;;;;1.42;1.13;;;17.10;70.80;;;;;;5122469;27;20047;-54
2021/05/28 11:27:35;;;;;;;1.48;1.38;;;17.20;70.20;;;;;;5135317;27;20047;-55
2021/05/28 11:30:04;;;;;;;2.00;1.17;;;17.10;70.10;;;;;;5134613;27;20050;-55
2021/05/28 11:32:33;;;;;;;2.38;1.42;;;17.20;70.10;;;;;;5134505;27;20121;-52
2021/05/28 11:35:35;;;;;;;1.20;1.10;;;17.20;70.10;;;;;;5135251;27;20054;-56
2021/05/28 11:38:14;;;;;;;1.50;1.17;;;17.20;70.00;;;;;;5093552;28;20426;-56
2021/05/28 11:40:42;;;;;;;1.35;1.25;;;17.20;70.00;;;;;;5114125;28;20075;-55
2021/05/28 11:43:19;;;;;;;1.20;1.10;;;17.20;70.00;;;;;;5121985;27;20052;-55
2021/05/28 11:45:50;;;;;;;1.60;1.10;;;17.20;70.00;;;;;;5120958;27;20435;-55
2021/05/28 11:48:23;;;;;;;2.05;1.30;;;17.30;70.00;;;;;;5120585;27;20035;-54
2021/05/28 11:50:54;;;;;;;1.48;1.35;;;17.30;70.00;;;;;;5122698;27;20097;-56
2021/05/28 11:53:21;;;;;;;1.33;1.20;;;17.30;70.00;;;;;;5122735;27;20034;-53
2021/05/28 11:55:53;;;;;;;1.20;1.10;;;17.30;70.00;;;;;;5122888;27;20057;-55
2021/05/28 11:58:21;;;;;;;1.40;1.30;;;17.30;69.90;;;;;;5121174;27;20040;-54
2021/05/28 12:00:49;;;;;;;12.98;2.72;;;17.30;69.90;;;;;;5121251;27;20070;-56
2021/05/28 12:03:15;;;;;;;6.65;2.10;;;17.30;69.70;;;;;;5117134;27;20417;-55
2021/05/28 12:05:46;;;;;;;4.43;1.55;;;17.40;69.60;;;;;;5114490;28;20088;-56
2021/05/28 12:08:21;;;;;;;5.72;1.85;;;17.40;69.60;;;;;;5126769;27;20047;-56
2021/05/28 12:10:57;;;;;;;2.72;1.45;;;17.40;69.60;;;;;;5120313;27;20050;-55
2021/05/28 12:13:24;;;;;;;4.32;1.73;;;17.40;69.60;;;;;;5108977;27;20043;-57
2021/05/28 12:15:55;;;;;;;1.85;1.58;;;17.40;69.70;;;;;;5092448;28;20055;-57
2021/05/28 12:18:24;;;;;;;3.83;1.60;;;17.50;69.70;;;;;;5093211;28;20531;-58
2021/05/28 12:21:12;;;;;;;2.10;1.40;;;17.50;69.70;;;;;;5107521;28;20054;-56
2021/05/28 12:23:39;;;;;;;1.75;1.40;;;17.50;69.70;;;;;;5118311;27;20045;-57
2021/05/28 12:26:10;;;;;;;3.40;1.80;;;17.50;69.70;;;;;;5122931;27;20526;-55
2021/05/28 12:28:42;;;;;;;1.42;1.20;;;17.60;69.70;;;;;;5115480;27;20044;-56
2021/05/28 12:31:10;;;;;;;1.98;1.00;;;17.60;70.30;;;;;;5112815;28;20047;-57
2021/05/28 12:33:38;;;;;;;2.65;1.25;;;17.60;69.70;;;;;;5113007;28;20100;-56
2021/05/28 12:36:10;;;;;;;1.80;1.27;;;17.60;69.70;;;;;;5112133;28;20567;-53
2021/05/28 12:38:40;;;;;;;3.45;1.45;;;17.60;69.60;;;;;;5113086;28;20116;-55
2021/05/28 12:41:08;;;;;;;2.17;1.60;;;17.60;69.60;;;;;;5112524;28;20135;-55
2021/05/28 12:43:37;;;;;;;1.27;1.15;;;17.60;69.60;;;;;;5097933;28;20389;-55
2021/05/28 12:46:03;;;;;;;2.28;1.85;;;17.60;69.50;;;;;;5089107;28;20036;-58
2021/05/28 12:48:43;;;;;;;1.40;1.00;;;17.60;69.50;;;;;;5110308;28;20052;-56
2021/05/28 12:51:13;;;;;;;2.22;1.42;;;17.60;69.40;;;;;;5098239;28;20150;-57
2021/05/28 12:53:40;;;;;;;1.30;1.10;;;17.60;69.40;;;;;;5092074;28;20039;-57
2021/05/28 12:56:07;;;;;;;2.08;1.52;;;17.60;69.40;;;;;;5098311;28;20059;-56
2021/05/28 12:58:34;;;;;;;1.60;1.00;;;17.70;69.40;;;;;;5111653;28;20054;-56